Time;durP1;ratioP1;P1;durP2;ratioP2;P2;SDS_P1;SDS_P2;PMS_P1;PMS_P2;Temp;Humidity;BMP_temperature;BMP_pressure;BME280_temperature;BME280_humidity;BME280_pressure;Samples;Min_cycle;Max_cycle;Signal;HPM_P1;HPM_P2
2022/07/26 00:00:22;;;;;;;0.30;0.30;;;;;;;;;;5052229;28;20456;-71
2022/07/26 00:02:47;;;;;;;0.57;0.57;;;;;;;;;;5052194;28;20037;-71
2022/07/26 00:05:13;;;;;;;0.30;0.30;;;;;;;;;;5053393;28;20083;-70
2022/07/26 00:07:39;;;;;;;0.50;0.50;;;;;;;;;;5053613;28;20029;-71
2022/07/26 00:10:04;;;;;;;0.25;0.25;;;;;;;;;;5051805;28;20041;-71
2022/07/26 00:12:30;;;;;;;0.40;0.40;;;;;;;;;;5051796;28;20033;-72
2022/07/26 00:14:55;;;;;;;0.65;0.65;;;;;;;;;;5053087;28;20064;-72
2022/07/26 00:17:21;;;;;;;0.22;0.22;;;;;;;;;;5051174;28;20017;-72
2022/07/26 00:19:47;;;;;;;0.32;0.32;;;;;;;;;;5053285;28;20029;-72
2022/07/26 00:24:56;;;;;;;0.40;0.40;;;;;;;;;;5052856;28;20036;-71
2022/07/26 00:27:22;;;;;;;0.30;0.30;;;;;;;;;;5051832;28;20025;-72
2022/07/26 00:29:47;;;;;;;0.30;0.30;;;;;;;;;;5052608;28;20033;-72
2022/07/26 00:32:13;;;;;;;0.52;0.52;;;;;;;;;;5053068;28;20025;-73
2022/07/26 00:34:38;;;;;;;0.40;0.40;;;;;;;;;;5052572;28;20083;-73
2022/07/26 00:37:04;;;;;;;2.25;0.85;;;;;;;;;;5052983;28;20044;-73
2022/07/26 00:39:29;;;;;;;0.20;0.20;;;;;;;;;;5052819;28;20040;-72
2022/07/26 00:41:54;;;;;;;0.30;0.30;;;;;;;;;;5052863;28;20037;-73
2022/07/26 00:44:20;;;;;;;0.30;0.30;;;;;;;;;;5053761;28;20033;-71
2022/07/26 00:46:45;;;;;;;0.30;0.30;;;;;;;;;;5053233;28;20036;-73
2022/07/26 00:49:11;;;;;;;0.30;0.30;;;;;;;;;;5053301;28;20395;-73
2022/07/26 00:51:36;;;;;;;2.17;1.15;;;;;;;;;;5051923;28;20119;-73
2022/07/26 00:54:03;;;;;;;0.20;0.20;;;;;;;;;;5053157;28;20075;-73
2022/07/26 00:56:29;;;;;;;0.38;0.38;;;;;;;;;;5051486;28;20108;-73
2022/07/26 00:58:54;;;;;;;0.30;0.30;;;;;;;;;;5052910;28;20108;-73
2022/07/26 01:01:20;;;;;;;0.68;0.63;;;;;;;;;;5051489;28;20029;-74
2022/07/26 01:03:49;;;;;;;0.30;0.30;;;;;;;;;;5052891;28;20115;-73
2022/07/26 01:06:14;;;;;;;0.30;0.30;;;;;;;;;;5052405;28;20022;-73
2022/07/26 01:08:40;;;;;;;0.20;0.20;;;;;;;;;;5052951;28;20021;-73
2022/07/26 01:11:06;;;;;;;0.30;0.30;;;;;;;;;;5052373;28;20072;-73
2022/07/26 01:13:33;;;;;;;0.30;0.30;;;;;;;;;;5052442;28;20021;-73
2022/07/26 01:15:58;;;;;;;0.40;0.40;;;;;;;;;;5051271;28;20090;-73
2022/07/26 01:18:24;;;;;;;1.27;0.80;;;;;;;;;;5050660;28;20088;-73
2022/07/26 01:20:49;;;;;;;0.88;0.88;;;;;;;;;;5050656;28;20060;-73
2022/07/26 01:23:15;;;;;;;0.20;0.20;;;;;;;;;;5051140;28;20063;-73
2022/07/26 01:25:40;;;;;;;0.30;0.30;;;;;;;;;;5050357;28;20071;-73
2022/07/26 01:28:06;;;;;;;0.30;0.30;;;;;;;;;;5033102;28;20362;-73
2022/07/26 01:30:31;;;;;;;0.30;0.30;;;;;;;;;;5054049;28;20498;-73
2022/07/26 01:32:57;;;;;;;0.30;0.28;;;;;;;;;;5053774;28;20036;-73
2022/07/26 01:35:22;;;;;;;0.50;0.50;;;;;;;;;;5053731;28;20036;-74
2022/07/26 01:37:48;;;;;;;0.20;0.20;;;;;;;;;;5053862;28;20025;-73
2022/07/26 01:40:13;;;;;;;0.20;0.20;;;;;;;;;;5054927;28;20029;-71
2022/07/26 01:42:40;;;;;;;0.55;0.55;;;;;;;;;;5055924;28;20017;-71
2022/07/26 01:45:06;;;;;;;0.50;0.50;;;;;;;;;;5054668;28;20025;-71
2022/07/26 01:47:31;;;;;;;0.28;0.28;;;;;;;;;;5055908;28;20036;-71
2022/07/26 01:49:57;;;;;;;0.20;0.20;;;;;;;;;;5056019;28;20036;-71
2022/07/26 01:52:22;;;;;;;0.28;0.28;;;;;;;;;;5055664;28;20037;-71
2022/07/26 01:54:48;;;;;;;0.30;0.30;;;;;;;;;;5055479;28;20028;-71
2022/07/26 01:57:13;;;;;;;0.73;0.73;;;;;;;;;;5055861;28;20056;-71
2022/07/26 01:59:38;;;;;;;0.30;0.30;;;;;;;;;;5055732;28;20017;-71
2022/07/26 02:02:04;;;;;;;0.43;0.43;;;;;;;;;;5055873;28;20496;-71
2022/07/26 02:07:13;;;;;;;0.28;0.28;;;;;;;;;;5055288;28;20116;-71
2022/07/26 02:09:39;;;;;;;0.30;0.30;;;;;;;;;;5055302;28;20117;-71
2022/07/26 02:12:05;;;;;;;0.30;0.30;;;;;;;;;;5055374;28;20500;-71
2022/07/26 02:14:31;;;;;;;0.20;0.20;;;;;;;;;;5055359;28;20115;-72
2022/07/26 02:16:58;;;;;;;0.20;0.20;;;;;;;;;;5053843;28;20497;-71
2022/07/26 02:19:25;;;;;;;0.20;0.20;;;;;;;;;;5055191;28;20037;-71
2022/07/26 02:21:50;;;;;;;0.20;0.20;;;;;;;;;;5053717;28;20034;-70
2022/07/26 02:24:16;;;;;;;0.43;0.43;;;;;;;;;;5055275;28;20388;-70
2022/07/26 02:26:41;;;;;;;0.30;0.30;;;;;;;;;;5054083;28;20526;-71
2022/07/26 02:29:07;;;;;;;0.30;0.30;;;;;;;;;;5053902;28;20106;-71
2022/07/26 02:31:32;;;;;;;0.32;0.32;;;;;;;;;;5054838;28;20037;-71
2022/07/26 02:33:58;;;;;;;0.30;0.30;;;;;;;;;;5055026;28;20373;-70
2022/07/26 02:36:23;;;;;;;0.20;0.20;;;;;;;;;;5054693;28;20029;-72
2022/07/26 02:38:48;;;;;;;0.20;0.20;;;;;;;;;;5054881;28;20040;-72
2022/07/26 02:41:14;;;;;;;0.73;0.73;;;;;;;;;;5054009;28;20116;-72
2022/07/26 02:43:39;;;;;;;3.38;3.17;;;;;;;;;;5054878;28;20028;-72
2022/07/26 02:46:05;;;;;;;0.52;0.52;;;;;;;;;;5054602;28;20075;-72
2022/07/26 02:48:30;;;;;;;0.45;0.45;;;;;;;;;;5054715;28;20025;-72
2022/07/26 02:50:56;;;;;;;0.65;0.65;;;;;;;;;;5054476;28;20028;-71
2022/07/26 02:53:21;;;;;;;0.20;0.20;;;;;;;;;;5054400;28;20064;-72
2022/07/26 02:55:47;;;;;;;2.38;2.28;;;;;;;;;;5054971;28;20480;-72
2022/07/26 02:58:12;;;;;;;1.02;1.00;;;;;;;;;;5054570;28;20055;-72
2022/07/26 03:00:38;;;;;;;0.28;0.28;;;;;;;;;;5054557;28;20021;-72
2022/07/26 03:03:03;;;;;;;2.38;1.15;;;;;;;;;;5050482;28;20059;-72
2022/07/26 03:05:29;;;;;;;1.70;1.60;;;;;;;;;;5050757;28;20025;-73
2022/07/26 03:07:54;;;;;;;0.40;0.40;;;;;;;;;;5050771;28;20040;-73
2022/07/26 03:10:20;;;;;;;0.20;0.20;;;;;;;;;;5049281;28;20115;-72
2022/07/26 03:12:45;;;;;;;1.27;1.17;;;;;;;;;;5049248;28;20075;-72
2022/07/26 03:15:11;;;;;;;0.20;0.20;;;;;;;;;;5050428;28;20032;-72
2022/07/26 03:17:37;;;;;;;0.30;0.30;;;;;;;;;;5050617;28;20024;-72
2022/07/26 03:20:03;;;;;;;0.20;0.20;;;;;;;;;;5050297;28;20048;-72
2022/07/26 03:22:28;;;;;;;0.20;0.20;;;;;;;;;;5050087;28;20377;-73
2022/07/26 03:24:54;;;;;;;0.20;0.20;;;;;;;;;;5050210;28;20029;-72
2022/07/26 03:27:19;;;;;;;0.40;0.40;;;;;;;;;;5049871;28;20029;-72
2022/07/26 03:29:45;;;;;;;0.25;0.25;;;;;;;;;;5049714;28;20021;-73
2022/07/26 03:32:10;;;;;;;0.30;0.30;;;;;;;;;;5049640;28;20491;-71
2022/07/26 03:34:36;;;;;;;2.83;1.67;;;;;;;;;;5049427;28;20041;-71
2022/07/26 03:37:02;;;;;;;0.20;0.20;;;;;;;;;;5049277;28;20083;-73
2022/07/26 03:39:27;;;;;;;0.43;0.43;;;;;;;;;;5049547;28;20017;-74
2022/07/26 03:41:53;;;;;;;0.65;0.65;;;;;;;;;;5049887;28;20476;-73
2022/07/26 03:44:19;;;;;;;1.48;1.13;;;;;;;;;;5048187;28;20033;-72
2022/07/26 03:46:44;;;;;;;0.30;0.30;;;;;;;;;;5049835;28;20133;-73
2022/07/26 03:49:09;;;;;;;0.30;0.30;;;;;;;;;;5049199;28;20102;-71
2022/07/26 03:51:35;;;;;;;0.20;0.20;;;;;;;;;;5049306;28;20068;-71
2022/07/26 03:54:01;;;;;;;0.30;0.30;;;;;;;;;;5048618;28;20402;-72
2022/07/26 03:56:32;;;;;;;1.85;1.75;;;;;;;;;;5049581;28;20032;-71
2022/07/26 03:59:00;;;;;;;0.20;0.20;;;;;;;;;;5048543;28;20424;-71
2022/07/26 04:01:27;;;;;;;;;;;;;;;;;;5049907;28;20030;-71
2022/07/26 04:03:53;;;;;;;0.20;0.20;;;;;;;;;;5049385;28;19999;-71
2022/07/26 04:06:18;;;;;;;0.20;0.20;;;;;;;;;;5048030;28;20362;-72
2022/07/26 04:08:44;;;;;;;0.20;0.20;;;;;;;;;;5049632;28;20113;-70
2022/07/26 04:11:09;;;;;;;0.32;0.32;;;;;;;;;;5049032;28;20459;-71
2022/07/26 04:13:35;;;;;;;0.20;0.20;;;;;;;;;;5049304;28;20432;-71
2022/07/26 04:16:01;;;;;;;0.20;0.20;;;;;;;;;;5049014;28;20032;-72
2022/07/26 04:18:27;;;;;;;0.20;0.20;;;;;;;;;;5047762;28;20020;-72
2022/07/26 04:20:52;;;;;;;0.20;0.20;;;;;;;;;;5049221;28;20047;-71
2022/07/26 04:23:18;;;;;;;0.20;0.20;;;;;;;;;;5049091;28;20033;-71
2022/07/26 04:25:43;;;;;;;0.30;0.30;;;;;;;;;;5048717;28;20021;-71
2022/07/26 04:28:09;;;;;;;1.10;0.95;;;;;;;;;;5049214;28;20028;-72
2022/07/26 04:30:35;;;;;;;0.30;0.30;;;;;;;;;;5048837;28;20542;-70
2022/07/26 04:33:01;;;;;;;0.20;0.20;;;;;;;;;;5045505;28;20473;-71
2022/07/26 04:35:26;;;;;;;0.47;0.47;;;;;;;;;;5049256;28;20441;-69
2022/07/26 04:37:52;;;;;;;0.25;0.25;;;;;;;;;;5048365;28;20028;-70
2022/07/26 04:40:18;;;;;;;0.20;0.20;;;;;;;;;;5049285;28;20480;-70
2022/07/26 04:42:44;;;;;;;0.20;0.20;;;;;;;;;;5049440;28;20029;-71
2022/07/26 04:45:11;;;;;;;0.20;0.20;;;;;;;;;;5048696;28;20025;-73
2022/07/26 04:47:40;;;;;;;0.28;0.28;;;;;;;;;;5048991;28;20037;-72
2022/07/26 04:50:05;;;;;;;0.32;0.32;;;;;;;;;;5049003;28;20025;-72
2022/07/26 04:52:31;;;;;;;0.47;0.47;;;;;;;;;;5047828;28;20385;-73
2022/07/26 04:54:57;;;;;;;0.30;0.30;;;;;;;;;;5049342;28;20040;-74
2022/07/26 04:57:22;;;;;;;0.20;0.20;;;;;;;;;;5058413;28;20033;-72
2022/07/26 04:59:48;;;;;;;0.63;0.63;;;;;;;;;;5060370;28;20041;-70
2022/07/26 05:02:14;;;;;;;0.20;0.20;;;;;;;;;;5059110;28;20049;-70
2022/07/26 05:04:40;;;;;;;3.92;1.65;;;;;;;;;;5051523;28;20495;-71
2022/07/26 05:07:06;;;;;;;0.40;0.40;;;;;;;;;;5052493;28;20040;-71
2022/07/26 05:09:31;;;;;;;0.38;0.38;;;;;;;;;;5053507;28;20065;-72
2022/07/26 05:11:57;;;;;;;0.20;0.20;;;;;;;;;;5052778;28;20047;-72
2022/07/26 05:14:22;;;;;;;0.60;0.60;;;;;;;;;;5052490;28;20021;-70
2022/07/26 05:16:48;;;;;;;0.20;0.20;;;;;;;;;;5058603;28;20079;-71
2022/07/26 05:19:14;;;;;;;0.22;0.22;;;;;;;;;;5052648;28;20350;-73
2022/07/26 05:21:39;;;;;;;0.90;0.90;;;;;;;;;;5052319;28;20032;-71
2022/07/26 05:24:05;;;;;;;0.30;0.30;;;;;;;;;;5052844;28;20032;-73
2022/07/26 05:26:31;;;;;;;0.63;0.63;;;;;;;;;;5052467;28;20056;-72
2022/07/26 05:28:57;;;;;;;0.43;0.40;;;;;;;;;;5052525;28;20453;-72
2022/07/26 05:31:23;;;;;;;2.30;2.15;;;;;;;;;;5051164;28;20037;-73
2022/07/26 05:33:48;;;;;;;0.28;0.28;;;;;;;;;;5051158;28;20049;-71
2022/07/26 05:36:14;;;;;;;0.70;0.70;;;;;;;;;;5052047;28;20021;-73
2022/07/26 05:38:39;;;;;;;1.02;1.02;;;;;;;;;;5052599;28;20028;-73
2022/07/26 05:41:05;;;;;;;0.30;0.30;;;;;;;;;;5052537;28;20033;-71
2022/07/26 05:43:31;;;;;;;0.35;0.35;;;;;;;;;;5062337;28;20074;-72
2022/07/26 05:45:57;;;;;;;1.60;1.50;;;;;;;;;;5051587;28;20057;-73
2022/07/26 05:48:22;;;;;;;0.30;0.30;;;;;;;;;;5050043;28;20112;-73
2022/07/26 05:50:48;;;;;;;0.45;0.45;;;;;;;;;;5050046;28;20500;-75
2022/07/26 05:53:14;;;;;;;0.20;0.20;;;;;;;;;;5050429;28;20305;-73
2022/07/26 05:55:39;;;;;;;0.30;0.30;;;;;;;;;;5058348;28;20025;-72
2022/07/26 05:58:05;;;;;;;77.32;24.40;;;;;;;;;;5054612;28;20013;-74
2022/07/26 06:00:30;;;;;;;0.35;0.35;;;;;;;;;;5049522;28;20055;-74
2022/07/26 06:02:56;;;;;;;0.30;0.30;;;;;;;;;;5051077;28;20013;-74
2022/07/26 06:05:21;;;;;;;0.52;0.52;;;;;;;;;;5056993;28;20040;-71
2022/07/26 06:07:47;;;;;;;0.43;0.43;;;;;;;;;;5052404;28;20092;-71
2022/07/26 06:10:12;;;;;;;0.40;0.40;;;;;;;;;;5050806;28;20033;-72
2022/07/26 06:12:38;;;;;;;0.50;0.50;;;;;;;;;;5051775;28;20013;-72
2022/07/26 06:15:03;;;;;;;0.50;0.50;;;;;;;;;;5051277;28;20518;-72
2022/07/26 06:17:29;;;;;;;0.40;0.40;;;;;;;;;;5050325;28;20055;-73
2022/07/26 06:19:55;;;;;;;0.45;0.45;;;;;;;;;;5051257;28;20082;-74
2022/07/26 06:22:20;;;;;;;0.40;0.40;;;;;;;;;;5051138;28;20037;-73
2022/07/26 06:24:46;;;;;;;0.50;0.50;;;;;;;;;;5051601;28;20565;-72
2022/07/26 06:27:11;;;;;;;1.13;1.02;;;;;;;;;;5051061;28;20464;-73
2022/07/26 06:29:37;;;;;;;0.40;0.40;;;;;;;;;;5051289;28;20025;-73
2022/07/26 06:32:02;;;;;;;0.50;0.50;;;;;;;;;;5051202;28;20329;-73
2022/07/26 06:34:28;;;;;;;1.30;1.20;;;;;;;;;;5050846;28;20496;-72
2022/07/26 06:36:54;;;;;;;1.17;1.10;;;;;;;;;;5050910;28;20037;-73
2022/07/26 06:39:19;;;;;;;2.50;1.25;;;;;;;;;;5050932;28;20025;-72
2022/07/26 06:41:45;;;;;;;0.30;0.30;;;;;;;;;;5050861;28;20076;-71
2022/07/26 06:44:10;;;;;;;0.50;0.50;;;;;;;;;;5051565;28;20051;-71
2022/07/26 06:46:36;;;;;;;0.93;0.70;;;;;;;;;;5053905;28;20028;-69
2022/07/26 06:49:02;;;;;;;0.65;0.65;;;;;;;;;;5050425;28;20377;-73
2022/07/26 06:51:27;;;;;;;0.57;0.57;;;;;;;;;;5050665;28;20029;-74
2022/07/26 06:53:53;;;;;;;0.40;0.40;;;;;;;;;;5052711;28;20411;-73
2022/07/26 06:56:18;;;;;;;0.35;0.35;;;;;;;;;;5052408;28;20036;-73
2022/07/26 06:58:44;;;;;;;0.43;0.43;;;;;;;;;;5051735;28;20013;-75
2022/07/26 07:01:10;;;;;;;0.50;0.50;;;;;;;;;;5054694;28;20052;-76
2022/07/26 07:03:35;;;;;;;0.50;0.50;;;;;;;;;;5056430;28;20404;-75
2022/07/26 07:06:01;;;;;;;0.30;0.30;;;;;;;;;;5059147;28;20081;-75
2022/07/26 07:08:26;;;;;;;0.40;0.40;;;;;;;;;;5052648;28;20217;-74
2022/07/26 07:10:52;;;;;;;0.30;0.30;;;;;;;;;;5049198;28;20041;-75
2022/07/26 07:13:17;;;;;;;0.40;0.40;;;;;;;;;;5046848;28;20365;-75
2022/07/26 07:15:43;;;;;;;0.32;0.32;;;;;;;;;;5048085;28;20032;-74
2022/07/26 07:18:09;;;;;;;0.35;0.35;;;;;;;;;;5030319;28;20480;-75
2022/07/26 07:20:35;;;;;;;0.40;0.40;;;;;;;;;;5041737;28;20075;-79
2022/07/26 07:23:00;;;;;;;0.70;0.70;;;;;;;;;;5038540;28;20036;-76
2022/07/26 07:25:26;;;;;;;0.30;0.30;;;;;;;;;;5043046;28;20031;-74
2022/07/26 07:27:51;;;;;;;0.70;0.70;;;;;;;;;;5045456;28;20476;-75
2022/07/26 07:30:17;;;;;;;0.40;0.40;;;;;;;;;;5047874;28;20070;-78
2022/07/26 07:32:42;;;;;;;0.30;0.30;;;;;;;;;;5044509;28;20384;-79
2022/07/26 07:35:08;;;;;;;0.30;0.30;;;;;;;;;;5051752;28;20104;-75
2022/07/26 07:37:34;;;;;;;0.30;0.30;;;;;;;;;;5047260;28;20032;-74
2022/07/26 07:39:59;;;;;;;0.47;0.47;;;;;;;;;;5050137;28;20076;-76
2022/07/26 07:42:25;;;;;;;0.40;0.40;;;;;;;;;;5043041;28;20147;-77
2022/07/26 07:44:50;;;;;;;0.40;0.40;;;;;;;;;;5039970;28;20077;-76
2022/07/26 07:47:16;;;;;;;0.38;0.38;;;;;;;;;;5037612;28;20029;-77
2022/07/26 07:49:41;;;;;;;0.40;0.40;;;;;;;;;;5029691;28;20123;-76
2022/07/26 07:52:07;;;;;;;0.40;0.40;;;;;;;;;;5047845;28;20513;-76
2022/07/26 07:54:32;;;;;;;0.63;0.63;;;;;;;;;;5046789;28;20115;-75
2022/07/26 07:56:58;;;;;;;0.50;0.50;;;;;;;;;;5046544;28;20058;-75
2022/07/26 07:59:23;;;;;;;0.50;0.50;;;;;;;;;;5027714;28;20041;-74
2022/07/26 08:01:49;;;;;;;1.20;1.05;;;;;;;;;;5034826;28;20022;-74
2022/07/26 08:04:14;;;;;;;0.70;0.70;;;;;;;;;;5036497;28;20025;-75
2022/07/26 08:06:40;;;;;;;0.60;0.60;;;;;;;;;;5037990;28;20139;-75
2022/07/26 08:09:05;;;;;;;0.55;0.55;;;;;;;;;;5028328;28;20030;-75
2022/07/26 08:11:31;;;;;;;0.43;0.43;;;;;;;;;;5035170;28;20134;-74
2022/07/26 08:13:57;;;;;;;0.30;0.30;;;;;;;;;;5041670;28;20025;-76
2022/07/26 08:16:22;;;;;;;0.60;0.60;;;;;;;;;;5044396;28;20029;-75
2022/07/26 08:18:48;;;;;;;0.50;0.50;;;;;;;;;;5045055;28;20111;-74
2022/07/26 08:21:13;;;;;;;0.50;0.50;;;;;;;;;;5044119;28;20025;-74
2022/07/26 08:23:39;;;;;;;2.92;1.58;;;;;;;;;;5045413;28;20060;-79
2022/07/26 08:26:04;;;;;;;2.03;1.73;;;;;;;;;;5047756;28;20025;-74
2022/07/26 08:28:30;;;;;;;0.85;0.82;;;;;;;;;;5047014;28;20029;-75
2022/07/26 08:30:55;;;;;;;0.70;0.70;;;;;;;;;;5046920;28;20116;-74
2022/07/26 08:33:22;;;;;;;0.82;0.70;;;;;;;;;;5046877;28;20052;-74
2022/07/26 08:35:47;;;;;;;3.60;1.60;;;;;;;;;;5045561;28;20029;-76
2022/07/26 08:38:13;;;;;;;2.95;1.67;;;;;;;;;;5046907;28;20084;-76
2022/07/26 08:40:38;;;;;;;0.60;0.60;;;;;;;;;;5049927;28;20033;-76
2022/07/26 08:43:04;;;;;;;0.30;0.30;;;;;;;;;;5055076;28;20021;-75
2022/07/26 08:45:30;;;;;;;1.25;1.02;;;;;;;;;;5046268;28;20025;-79
2022/07/26 08:47:56;;;;;;;1.08;0.95;;;;;;;;;;5046616;28;20531;-75
2022/07/26 08:50:21;;;;;;;1.25;1.15;;;;;;;;;;5040929;28;20028;-75
2022/07/26 08:52:47;;;;;;;2.92;1.50;;;;;;;;;;5035528;28;20037;-75
2022/07/26 08:55:17;;;;;;;1.13;0.93;;;;;;;;;;5029901;28;20116;-73
2022/07/26 08:57:43;;;;;;;2.83;2.40;;;;;;;;;;5040311;28;20087;-79
2022/07/26 09:00:21;;;;;;;3.08;1.65;;;;;;;;;;5049808;28;20849;-73
2022/07/26 09:02:47;;;;;;;0.55;0.55;;;;;;;;;;5055831;28;20029;-73
2022/07/26 09:05:13;;;;;;;0.40;0.40;;;;;;;;;;5068396;28;20036;-73
2022/07/26 09:07:38;;;;;;;4.28;2.15;;;;;;;;;;5067056;28;20467;-76
2022/07/26 09:10:04;;;;;;;0.55;0.55;;;;;;;;;;5047132;28;20025;-73
2022/07/26 09:12:30;;;;;;;0.45;0.45;;;;;;;;;;5046919;28;20041;-77
2022/07/26 09:14:56;;;;;;;0.60;0.60;;;;;;;;;;5046796;28;20032;-79
2022/07/26 09:17:24;;;;;;;3.15;1.77;;;;;;;;;;5044797;28;20038;-74
2022/07/26 09:20:22;;;;;;;0.52;0.52;;;;;;;;;;5040805;28;20041;-75
2022/07/26 09:23:03;;;;;;;2.15;1.35;;;;;;;;;;4986285;28;20063;-73
2022/07/26 09:25:30;;;;;;;4.82;2.17;;;;;;;;;;5029494;28;20025;-75
2022/07/26 09:27:58;;;;;;;1.13;1.02;;;;;;;;;;5029111;28;20029;-74
2022/07/26 09:30:24;;;;;;;0.70;0.70;;;;;;;;;;5039029;28;20036;-75
2022/07/26 09:32:56;;;;;;;1.65;1.42;;;;;;;;;;5001543;28;1222929;-73
2022/07/26 09:35:22;;;;;;;0.50;0.50;;;;;;;;;;5037280;28;20037;-74
2022/07/26 09:37:47;;;;;;;0.77;0.77;;;;;;;;;;5041545;28;20491;-74
2022/07/26 09:40:16;;;;;;;0.88;0.88;;;;;;;;;;5038764;28;20028;-74
2022/07/26 09:42:57;;;;;;;0.50;0.50;;;;;;;;;;5037662;28;20477;-74
2022/07/26 09:45:24;;;;;;;0.57;0.57;;;;;;;;;;5021632;28;20033;-75
2022/07/26 09:47:50;;;;;;;1.23;1.13;;;;;;;;;;5042552;28;20021;-73
2022/07/26 09:50:15;;;;;;;0.68;0.68;;;;;;;;;;5040394;28;20040;-75
2022/07/26 09:52:56;;;;;;;0.50;0.50;;;;;;;;;;5039629;28;20078;-74
2022/07/26 09:55:21;;;;;;;1.55;1.52;;;;;;;;;;5044792;28;20033;-77
2022/07/26 09:57:49;;;;;;;0.30;0.30;;;;;;;;;;5055377;28;20032;-74
2022/07/26 10:00:15;;;;;;;1.27;1.10;;;;;;;;;;5056378;28;20036;-81
2022/07/26 10:02:40;;;;;;;0.70;0.63;;;;;;;;;;5063329;28;20075;-76
2022/07/26 10:05:06;;;;;;;0.85;0.85;;;;;;;;;;5069546;28;20425;-74
2022/07/26 10:07:31;;;;;;;0.52;0.52;;;;;;;;;;5044353;28;20017;-73
2022/07/26 10:10:00;;;;;;;0.43;0.43;;;;;;;;;;5040630;28;20497;-73
2022/07/26 10:12:27;;;;;;;1.13;1.02;;;;;;;;;;5039572;28;20025;-74
2022/07/26 10:14:54;;;;;;;0.38;0.38;;;;;;;;;;5034847;28;20147;-76
2022/07/26 10:17:28;;;;;;;0.60;0.60;;;;;;;;;;5056614;28;20040;-76
2022/07/26 10:20:01;;;;;;;0.68;0.68;;;;;;;;;;5066324;28;20033;-75
2022/07/26 10:22:30;;;;;;;0.80;0.80;;;;;;;;;;5068820;28;20032;-75
2022/07/26 10:25:15;;;;;;;0.65;0.65;;;;;;;;;;5069168;28;20039;-81
2022/07/26 10:27:41;;;;;;;3.70;1.88;;;;;;;;;;5069771;28;20032;-77
2022/07/26 10:30:16;;;;;;;0.43;0.43;;;;;;;;;;5069151;28;20476;-75
2022/07/26 10:32:53;;;;;;;1.58;1.30;;;;;;;;;;5043843;28;20044;-74
2022/07/26 10:35:39;;;;;;;1.65;1.42;;;;;;;;;;5048331;28;20090;-73
2022/07/26 10:38:08;;;;;;;0.40;0.40;;;;;;;;;;5048508;28;20021;-74
2022/07/26 10:40:35;;;;;;;4.55;1.67;;;;;;;;;;5046949;28;20025;-75
2022/07/26 10:43:11;;;;;;;0.35;0.35;;;;;;;;;;5047705;28;20021;-74
2022/07/26 10:45:37;;;;;;;0.60;0.60;;;;;;;;;;5045731;28;20106;-75
2022/07/26 10:48:16;;;;;;;0.40;0.40;;;;;;;;;;5047686;28;20053;-74
2022/07/26 10:50:42;;;;;;;0.50;0.50;;;;;;;;;;5045389;28;20175;-73
2022/07/26 10:53:08;;;;;;;1.00;0.80;;;;;;;;;;5047486;28;20037;-74
2022/07/26 10:55:47;;;;;;;0.50;0.50;;;;;;;;;;5048399;28;20110;-76
2022/07/26 10:58:12;;;;;;;;;;;;;;;;;;5048408;28;20036;-74
2022/07/26 11:00:38;;;;;;;2.53;0.80;;;;;;;;;;5047579;28;19912;-74
2022/07/26 11:03:03;;;;;;;0.70;0.70;;;;;;;;;;5048459;28;20262;-73
2022/07/26 11:05:30;;;;;;;0.77;0.77;;;;;;;;;;5047807;28;20036;-73
2022/07/26 11:08:09;;;;;;;0.50;0.50;;;;;;;;;;5036033;28;20025;-74
2022/07/26 11:10:39;;;;;;;0.50;0.50;;;;;;;;;;5045541;28;20511;-76
2022/07/26 11:13:06;;;;;;;6.78;1.88;;;;;;;;;;5030515;28;20115;-74
2022/07/26 11:15:32;;;;;;;1.05;1.00;;;;;;;;;;5048446;28;20056;-75
2022/07/26 11:18:08;;;;;;;0.70;0.70;;;;;;;;;;5048071;28;20041;-74
2022/07/26 11:20:33;;;;;;;3.35;1.95;;;;;;;;;;5048337;28;20057;-74
2022/07/26 11:22:59;;;;;;;0.45;0.45;;;;;;;;;;5047909;28;20065;-75
2022/07/26 11:25:25;;;;;;;42.22;5.15;;;;;;;;;;5045979;28;20017;-73
2022/07/26 11:28:00;;;;;;;1.23;1.13;;;;;;;;;;5038532;28;20021;-73
2022/07/26 11:30:26;;;;;;;0.70;0.70;;;;;;;;;;5032557;28;20060;-76
2022/07/26 11:32:52;;;;;;;3.65;1.77;;;;;;;;;;5037934;28;20148;-76
2022/07/26 11:35:18;;;;;;;2.47;1.85;;;;;;;;;;5029432;28;20563;-77
2022/07/26 11:37:56;;;;;;;1.20;0.98;;;;;;;;;;5047208;28;20032;-75
2022/07/26 11:40:48;;;;;;;0.35;0.35;;;;;;;;;;5046505;28;20033;-75
2022/07/26 11:43:14;;;;;;;0.50;0.50;;;;;;;;;;5037584;28;20076;-72
2022/07/26 11:45:39;;;;;;;1.40;1.00;;;;;;;;;;5015967;28;20060;-74
2022/07/26 11:48:05;;;;;;;1.08;0.95;;;;;;;;;;5041219;28;20384;-74
2022/07/26 11:50:31;;;;;;;1.13;1.02;;;;;;;;;;5048539;28;20029;-80
2022/07/26 11:52:56;;;;;;;1.45;1.20;;;;;;;;;;5046832;28;20025;-74
2022/07/26 11:55:29;;;;;;;3.65;1.02;;;;;;;;;;5041169;28;20025;-78
2022/07/26 11:57:54;;;;;;;0.88;0.88;;;;;;;;;;5042417;28;20036;-74
2022/07/26 12:00:21;;;;;;;0.68;0.68;;;;;;;;;;5039012;28;20017;-75
2022/07/26 12:02:47;;;;;;;0.50;0.50;;;;;;;;;;5027766;28;20041;-76
2022/07/26 12:05:14;;;;;;;0.85;0.85;;;;;;;;;;5029882;28;20033;-74
2022/07/26 12:07:51;;;;;;;4.00;0.98;;;;;;;;;;5036656;28;20040;-74
2022/07/26 12:10:17;;;;;;;3.70;1.77;;;;;;;;;;5056517;28;20483;-75
2022/07/26 12:12:43;;;;;;;3.20;2.00;;;;;;;;;;5047105;28;20044;-75
2022/07/26 12:15:08;;;;;;;2.13;1.70;;;;;;;;;;5047185;28;20033;-75
2022/07/26 12:17:34;;;;;;;2.53;1.38;;;;;;;;;;5047605;28;20033;-74
2022/07/26 12:20:13;;;;;;;1.15;1.05;;;;;;;;;;5047194;28;20020;-73
2022/07/26 12:22:38;;;;;;;1.10;0.80;;;;;;;;;;5043083;28;20104;-76
2022/07/26 12:25:04;;;;;;;0.70;0.70;;;;;;;;;;5035782;28;20095;-74
2022/07/26 12:27:31;;;;;;;3.70;1.50;;;;;;;;;;5043278;28;20535;-75
2022/07/26 12:29:59;;;;;;;1.27;1.15;;;;;;;;;;5047239;28;20025;-74
2022/07/26 12:32:35;;;;;;;1.30;0.70;;;;;;;;;;5046879;28;20120;-73
2022/07/26 12:35:07;;;;;;;4.20;3.90;;;;;;;;;;5046863;28;20354;-74
2022/07/26 12:37:46;;;;;;;2.25;1.75;;;;;;;;;;5045989;28;20088;-74
2022/07/26 12:40:12;;;;;;;3.55;2.30;;;;;;;;;;5047527;28;20040;-75
2022/07/26 12:43:04;;;;;;;3.15;2.03;;;;;;;;;;5047682;28;20033;-73
2022/07/26 12:45:30;;;;;;;1.13;0.85;;;;;;;;;;5043669;28;20511;-74
2022/07/26 12:47:57;;;;;;;2.20;1.42;;;;;;;;;;5046658;28;20033;-75
2022/07/26 12:50:23;;;;;;;0.40;0.40;;;;;;;;;;5046220;28;20103;-76
2022/07/26 12:52:49;;;;;;;3.65;1.27;;;;;;;;;;5047327;28;20032;-74
2022/07/26 12:55:18;;;;;;;0.50;0.50;;;;;;;;;;5046819;28;20029;-75
2022/07/26 12:57:44;;;;;;;2.10;1.60;;;;;;;;;;5057190;28;20013;-74
2022/07/26 13:00:10;;;;;;;1.90;1.05;;;;;;;;;;5040290;28;20036;-73
2022/07/26 13:02:36;;;;;;;1.45;1.35;;;;;;;;;;5033725;28;20027;-73
2022/07/26 13:05:03;;;;;;;1.67;1.42;;;;;;;;;;5036320;28;20481;-73
2022/07/26 13:07:28;;;;;;;1.60;1.30;;;;;;;;;;5043452;28;20029;-73
2022/07/26 13:09:54;;;;;;;9.20;2.13;;;;;;;;;;5047634;28;20071;-73
2022/07/26 13:12:20;;;;;;;2.25;1.73;;;;;;;;;;5039009;28;20117;-75
2022/07/26 13:14:45;;;;;;;5.32;2.47;;;;;;;;;;5044826;28;20030;-73
2022/07/26 13:17:11;;;;;;;3.05;1.67;;;;;;;;;;5044131;28;20087;-74
2022/07/26 13:23:08;;;;;;;0.50;0.50;;;;;;;;;;5052219;28;20032;-74
2022/07/26 13:25:34;;;;;;;2.03;1.33;;;;;;;;;;5050595;28;20040;-76
2022/07/26 13:27:59;;;;;;;0.55;0.55;;;;;;;;;;5044105;28;20032;-73
2022/07/26 13:30:26;;;;;;;4.95;2.47;;;;;;;;;;5050742;28;20029;-73
2022/07/26 13:32:51;;;;;;;1.15;1.10;;;;;;;;;;5033955;28;20496;-73
2022/07/26 13:35:17;;;;;;;0.63;0.63;;;;;;;;;;5034530;28;20158;-74
2022/07/26 13:37:43;;;;;;;9.38;2.13;;;;;;;;;;5034858;28;20510;-73
2022/07/26 13:40:09;;;;;;;1.88;1.30;;;;;;;;;;5033940;28;20021;-73
2022/07/26 13:42:36;;;;;;;0.82;0.82;;;;;;;;;;5049325;28;20087;-73
2022/07/26 13:45:03;;;;;;;1.38;1.17;;;;;;;;;;5049194;28;20480;-72
2022/07/26 13:47:28;;;;;;;0.60;0.60;;;;;;;;;;5032418;28;20064;-74
2022/07/26 13:49:54;;;;;;;3.85;1.70;;;;;;;;;;5049260;28;20060;-74
2022/07/26 13:52:19;;;;;;;1.25;1.15;;;;;;;;;;5032275;28;20033;-75
2022/07/26 13:54:45;;;;;;;2.25;1.95;;;;;;;;;;5049813;28;20040;-75
2022/07/26 13:57:11;;;;;;;0.60;0.60;;;;;;;;;;5034497;28;20017;-73
2022/07/26 13:59:36;;;;;;;4.03;2.53;;;;;;;;;;5051623;28;20024;-74
2022/07/26 14:02:03;;;;;;;4.00;1.00;;;;;;;;;;5033818;28;20077;-73
2022/07/26 14:04:30;;;;;;;1.10;1.00;;;;;;;;;;5052384;28;20036;-73
2022/07/26 14:06:56;;;;;;;2.05;1.48;;;;;;;;;;5050617;28;20036;-75
2022/07/26 14:09:22;;;;;;;8.30;2.38;;;;;;;;;;5033669;28;20392;-73
2022/07/26 14:11:47;;;;;;;2.15;1.27;;;;;;;;;;5034058;28;20033;-73
2022/07/26 14:14:13;;;;;;;0.85;0.85;;;;;;;;;;5050273;28;20013;-75
2022/07/26 14:16:39;;;;;;;3.95;1.70;;;;;;;;;;5033600;28;20029;-72
2022/07/26 14:19:05;;;;;;;0.95;0.95;;;;;;;;;;5033557;28;20174;-73
2022/07/26 14:21:32;;;;;;;1.38;1.05;;;;;;;;;;5033893;28;20104;-74
2022/07/26 14:23:58;;;;;;;0.70;0.70;;;;;;;;;;5032404;28;20116;-72
2022/07/26 14:26:24;;;;;;;10.63;3.53;;;;;;;;;;5033805;28;20163;-73
2022/07/26 14:28:50;;;;;;;0.63;0.63;;;;;;;;;;5031612;28;20029;-74
2022/07/26 14:31:16;;;;;;;0.52;0.52;;;;;;;;;;5028699;28;20366;-72
2022/07/26 14:33:41;;;;;;;0.75;0.75;;;;;;;;;;5027878;28;20096;-72
2022/07/26 14:36:08;;;;;;;1.98;1.67;;;;;;;;;;5048337;28;20033;-72
2022/07/26 14:38:35;;;;;;;3.17;1.63;;;;;;;;;;5049572;28;20028;-74
2022/07/26 14:41:00;;;;;;;0.65;0.65;;;;;;;;;;5048729;28;20103;-74
2022/07/26 14:43:26;;;;;;;4.47;2.47;;;;;;;;;;5033182;28;20563;-74
2022/07/26 14:45:51;;;;;;;4.18;1.65;;;;;;;;;;5049559;28;20032;-73
2022/07/26 14:48:17;;;;;;;2.15;1.17;;;;;;;;;;5032923;28;20506;-74